Time;durP1;ratioP1;P1;durP2;ratioP2;P2;SDS_P1;SDS_P2;PMS_P1;PMS_P2;Temp;Humidity;BMP_temperature;BMP_pressure;BME280_temperature;BME280_humidity;BME280_pressure;Samples;Min_cycle;Max_cycle;Signal;HPM_P1;HPM_P2
2023/10/16 00:00:47;;;;;;;4.65;2.22;;;3.60;99.90;;;2.94;100.00;97881.38;4991652;28;20485;-38
2023/10/16 00:03:12;;;;;;;6.00;2.47;;;3.60;99.90;;;2.62;100.00;97835.31;4995768;28;20091;-37
2023/10/16 00:05:45;;;;;;;3.47;2.40;;;3.60;99.90;;;2.87;100.00;97883.09;4992705;28;20061;-37
2023/10/16 00:08:16;;;;;;;;;;;3.60;99.90;;;2.85;100.00;97880.53;4996268;28;20030;-38
2023/10/16 00:10:52;;;;;;;3.55;2.03;;;3.50;99.90;;;2.85;100.00;97877.94;4994977;28;20584;-37
2023/10/16 00:13:23;;;;;;;6.85;2.90;;;3.50;99.90;;;2.82;100.00;97877.91;4996628;28;20425;-37
2023/10/16 00:15:49;;;;;;;3.93;2.60;;;3.50;99.90;;;2.81;100.00;97872.69;4990106;28;20041;-37
2023/10/16 00:18:22;;;;;;;8.02;2.60;;;3.50;99.90;;;2.81;100.00;97867.50;4998626;28;20307;-37
2023/10/16 00:20:50;;;;;;;5.30;2.47;;;3.50;99.90;;;2.70;100.00;97843.16;5000158;28;20034;-38
2023/10/16 00:23:17;;;;;;;5.47;2.63;;;3.50;99.90;;;2.78;100.00;97857.94;4995233;28;20050;-39
2023/10/16 00:25:44;;;;;;;4.57;2.78;;;3.50;99.90;;;2.78;100.00;97867.47;4996663;28;20088;-37
2023/10/16 00:28:11;;;;;;;4.88;2.83;;;3.50;99.90;;;2.78;100.00;97873.56;4995176;28;20442;-37
2023/10/16 00:30:38;;;;;;;4.00;2.20;;;3.50;99.90;;;2.73;100.00;97864.00;4990806;28;20048;-37
2023/10/16 00:33:10;;;;;;;5.60;2.38;;;3.50;99.90;;;2.74;100.00;97864.00;4995756;28;20054;-38
2023/10/16 00:35:37;;;;;;;;;;;3.40;99.90;;;2.76;100.00;97864.88;4995098;28;20046;-38
2023/10/16 00:38:04;;;;;;;2.85;1.90;;;3.50;99.90;;;2.73;100.00;97849.25;4998280;28;19917;-39
2023/10/16 00:40:33;;;;;;;4.88;2.13;;;3.50;99.90;;;2.80;100.00;97856.22;4998731;28;20401;-37
2023/10/16 00:43:12;;;;;;;4.10;2.22;;;3.50;99.90;;;2.77;100.00;97866.63;4996578;28;20293;-39
2023/10/16 00:46:05;;;;;;;2.72;1.77;;;3.50;99.90;;;2.74;100.00;97848.38;4990446;28;20060;-37
2023/10/16 00:48:34;;;;;;;4.35;2.38;;;3.50;99.90;;;2.70;100.00;97841.41;4986731;28;20087;-38
2023/10/16 00:51:06;;;;;;;4.40;1.98;;;3.40;99.90;;;2.74;100.00;97847.50;4981957;28;20541;-38
2023/10/16 00:53:33;;;;;;;3.40;1.63;;;3.40;99.90;;;2.74;100.00;97844.91;5006542;28;20038;-37
2023/10/16 00:56:02;;;;;;;3.15;1.63;;;3.40;99.90;;;2.65;100.00;97836.19;4996236;28;20433;-37
2023/10/16 00:58:31;;;;;;;3.28;1.83;;;3.40;99.90;;;2.68;100.00;97822.31;4996482;28;20042;-39
2023/10/16 01:01:02;;;;;;;2.53;1.55;;;3.40;99.90;;;2.65;100.00;97833.59;4989822;28;20057;-38
2023/10/16 01:03:31;;;;;;;2.72;1.63;;;3.40;99.90;;;2.63;100.00;97822.31;4989756;28;20482;-37
2023/10/16 01:05:58;;;;;;;3.60;1.90;;;3.40;99.90;;;2.58;100.00;97829.25;4993788;28;20501;-37
2023/10/16 01:08:25;;;;;;;3.78;1.75;;;3.30;99.90;;;2.60;100.00;97824.03;4995894;28;20038;-37
2023/10/16 01:10:54;;;;;;;3.90;1.70;;;3.30;99.90;;;2.56;100.00;97819.69;4996144;28;20033;-39
2023/10/16 01:13:19;;;;;;;4.20;1.70;;;3.30;99.90;;;2.57;100.00;97824.06;4990765;28;20080;-37
2023/10/16 01:15:50;;;;;;;2.92;1.65;;;3.30;99.90;;;2.38;100.00;97797.09;4981588;28;20445;-38
2023/10/16 01:18:17;;;;;;;4.40;1.80;;;3.20;99.90;;;2.50;100.00;97817.09;4991006;28;20034;-37
2023/10/16 01:20:48;;;;;;;4.10;1.95;;;3.20;99.90;;;2.46;100.00;97811.88;4996985;28;20414;-38
2023/10/16 01:23:20;;;;;;;2.67;1.60;;;3.20;99.90;;;2.44;100.00;97817.94;4995920;28;20315;-38
2023/10/16 01:25:47;;;;;;;3.00;1.90;;;3.20;99.90;;;2.43;100.00;97818.81;4994653;28;20354;-38
2023/10/16 01:28:16;;;;;;;2.85;1.60;;;3.20;99.90;;;2.36;100.00;97804.91;4993317;28;20850;-37
2023/10/16 01:30:52;;;;;;;3.65;2.05;;;3.10;99.90;;;2.40;100.00;97811.84;4992207;28;20037;-37
2023/10/16 01:33:19;;;;;;;3.10;1.88;;;3.10;99.90;;;2.38;100.00;97805.78;4996216;28;20083;-37
2023/10/16 01:35:46;;;;;;;3.08;1.65;;;3.10;99.90;;;2.35;100.00;97805.78;4997803;28;20088;-38
2023/10/16 01:38:15;;;;;;;2.83;1.50;;;3.10;99.90;;;2.31;100.00;97804.03;4995401;28;20073;-37
2023/10/16 01:43:33;;;;;;;3.35;1.77;;;3.00;99.90;;;2.26;100.00;97797.94;4997811;28;20498;-37
2023/10/16 01:46:03;;;;;;;3.42;1.60;;;3.00;99.90;;;2.24;100.00;97808.38;4992349;28;20038;-37
2023/10/16 01:48:29;;;;;;;3.33;1.60;;;3.00;99.90;;;2.19;100.00;97804.00;5000305;28;20817;-37
2023/10/16 01:50:55;;;;;;;3.55;1.63;;;2.90;99.90;;;2.17;100.00;97809.22;4995382;28;20030;-37
2023/10/16 01:53:25;;;;;;;3.83;1.83;;;2.90;99.90;;;2.15;100.00;97810.91;4998568;28;20046;-38
2023/10/16 01:55:54;;;;;;;3.47;1.90;;;2.90;99.90;;;2.13;100.00;97804.00;4998365;28;20528;-37
2023/10/16 01:58:30;;;;;;;5.20;1.80;;;2.80;99.90;;;2.08;100.00;97797.03;4991125;28;20521;-38
2023/10/16 02:00:56;;;;;;;2.22;1.50;;;2.80;99.90;;;2.03;100.00;97803.97;4991974;28;20030;-38
2023/10/16 02:03:25;;;;;;;7.10;1.90;;;2.80;99.90;;;1.99;100.00;97802.22;4993274;28;20057;-37
2023/10/16 02:05:51;;;;;;;4.75;1.63;;;2.70;99.90;;;1.96;100.00;97790.94;4994173;28;20449;-37
2023/10/16 02:08:20;;;;;;;4.60;2.15;;;2.70;99.90;;;1.96;100.00;97797.00;4995254;28;20034;-37
2023/10/16 02:10:46;;;;;;;4.00;1.98;;;2.70;99.90;;;1.92;100.00;97795.25;4993047;28;20045;-37
2023/10/16 02:13:12;;;;;;;3.47;1.92;;;2.70;99.90;;;1.91;100.00;97786.56;4991042;28;20029;-37
2023/10/16 02:15:39;;;;;;;3.83;1.90;;;2.60;99.90;;;1.84;100.00;97768.34;4988980;28;20068;-37
2023/10/16 02:18:07;;;;;;;4.03;2.00;;;2.60;99.90;;;1.87;100.00;97781.38;4995882;28;20033;-37
2023/10/16 02:20:36;;;;;;;3.33;2.03;;;2.60;99.90;;;1.84;100.00;97777.00;4993251;28;20546;-37
2023/10/16 02:23:06;;;;;;;4.97;2.22;;;2.60;99.90;;;1.78;100.00;97781.34;4988448;28;20034;-37
2023/10/16 02:25:34;;;;;;;4.80;2.20;;;2.60;99.90;;;1.77;100.00;97779.59;4992723;28;20541;-37
2023/10/16 02:28:00;;;;;;;4.18;1.73;;;2.50;99.90;;;1.74;100.00;97772.63;4994767;28;20037;-37
2023/10/16 02:32:53;;;;;;;2.75;1.88;;;2.50;99.90;;;1.49;100.00;97750.84;4992391;28;20092;-37
2023/10/16 02:35:22;;;;;;;3.30;2.20;;;2.40;99.90;;;1.63;100.00;97774.31;4992979;28;20030;-39
2023/10/16 02:37:53;;;;;;;3.08;2.00;;;2.40;99.90;;;1.64;100.00;97773.47;4994784;28;20034;-37
2023/10/16 02:40:20;;;;;;;3.75;2.28;;;2.40;99.90;;;1.62;100.00;97781.25;4999483;28;20699;-37
2023/10/16 02:42:55;;;;;;;6.85;2.20;;;2.40;99.90;;;1.61;100.00;97770.84;4996558;28;20418;-38
2023/10/16 02:45:27;;;;;;;5.47;2.33;;;2.40;99.90;;;1.60;100.00;97772.59;4987514;28;20232;-38
2023/10/16 02:47:53;;;;;;;4.55;2.22;;;2.40;99.90;;;1.61;100.00;97769.09;4995398;28;20947;-38
2023/10/16 02:50:20;;;;;;;7.18;2.50;;;2.30;99.90;;;1.60;100.00;97769.97;4996749;28;20129;-37
2023/10/16 02:52:49;;;;;;;5.70;2.60;;;2.30;99.90;;;1.58;100.00;97771.72;4996082;28;20042;-36
2023/10/16 02:55:15;;;;;;;4.65;2.67;;;2.30;99.90;;;1.55;100.00;97766.50;4996902;28;20474;-37
2023/10/16 02:57:42;;;;;;;4.55;2.35;;;2.30;99.90;;;1.50;100.00;97755.19;5000466;28;20034;-38
2023/10/16 03:00:17;;;;;;;5.28;2.40;;;2.30;99.90;;;1.55;100.00;97765.63;4982797;28;20038;-37
2023/10/16 03:02:46;;;;;;;4.22;2.42;;;2.30;99.90;;;1.53;100.00;97763.03;4996570;28;20034;-37
2023/10/16 03:05:21;;;;;;;4.90;2.22;;;2.30;99.90;;;1.53;100.00;97771.69;4996360;28;20287;-37
2023/10/16 03:07:52;;;;;;;5.35;3.10;;;2.30;99.90;;;1.52;100.00;97774.25;4996996;28;20513;-38
2023/10/16 03:10:20;;;;;;;5.82;2.47;;;2.30;99.90;;;1.51;100.00;97783.81;4997840;28;20049;-38
2023/10/16 03:12:49;;;;;;;4.18;2.67;;;2.20;99.90;;;1.49;100.00;97774.25;4990057;28;20030;-37
2023/10/16 03:15:31;;;;;;;6.18;2.58;;;2.20;99.90;;;1.48;100.00;97772.53;4987414;28;20650;-37
2023/10/16 03:17:57;;;;;;;3.90;2.22;;;2.20;99.90;;;1.47;100.00;97775.97;4992834;28;20033;-37
2023/10/16 03:20:28;;;;;;;3.67;2.33;;;2.20;99.90;;;1.47;100.00;97778.56;4991872;28;20042;-39
2023/10/16 03:22:54;;;;;;;4.00;2.55;;;2.20;99.90;;;1.44;100.00;97765.56;4995098;28;20041;-38
2023/10/16 03:26:05;;;;;;;7.03;2.58;;;2.20;99.90;;;1.38;100.00;97768.97;4995053;28;20026;-37
2023/10/16 03:28:11;;;;;;;3.75;2.60;;;2.20;99.90;;;1.36;100.00;97767.25;4985178;28;20135;-38
2023/10/16 03:30:39;;;;;;;3.92;2.47;;;2.10;99.90;;;1.34;100.00;97765.50;4991903;28;20037;-37
2023/10/16 03:33:05;;;;;;;5.03;2.95;;;2.10;99.90;;;1.33;100.00;97766.38;4995817;28;20607;-38
2023/10/16 03:35:31;;;;;;;6.82;2.65;;;2.10;99.90;;;1.29;100.00;97758.53;4999541;28;20033;-37
2023/10/16 03:37:58;;;;;;;3.92;2.58;;;2.10;99.90;;;1.33;100.00;97758.59;4992887;28;20052;-37
2023/10/16 03:40:25;;;;;;;4.63;2.88;;;2.10;99.90;;;1.27;100.00;97747.28;4992269;28;20044;-37
2023/10/16 03:42:51;;;;;;;5.45;3.28;;;2.10;99.90;;;1.30;100.00;97753.34;4993693;28;20120;-38
2023/10/16 03:45:20;;;;;;;7.25;3.40;;;2.10;99.90;;;1.38;100.00;97756.00;4994590;28;20022;-36
2023/10/16 03:48:00;;;;;;;6.30;3.00;;;2.10;99.90;;;1.18;100.00;97719.50;4997882;28;20409;-36
2023/10/16 03:50:26;;;;;;;6.18;3.13;;;2.20;99.90;;;1.33;100.00;97747.31;4995640;28;20033;-37
2023/10/16 03:52:54;;;;;;;5.90;3.22;;;2.20;99.90;;;1.30;100.00;97742.97;4995477;28;20030;-37
2023/10/16 03:55:25;;;;;;;6.32;3.60;;;2.10;99.90;;;1.34;100.00;97747.31;4996922;28;20042;-38
2023/10/16 03:57:57;;;;;;;7.53;3.08;;;2.10;99.90;;;1.33;100.00;97749.94;4998725;28;20140;-38
2023/10/16 04:00:26;;;;;;;7.38;3.60;;;2.10;99.90;;;1.23;100.00;97729.94;5007609;28;20042;-37
2023/10/16 04:02:52;;;;;;;6.90;3.42;;;2.10;99.90;;;1.33;100.00;97743.00;4997654;28;20034;-38
2023/10/16 04:05:32;;;;;;;6.03;3.15;;;2.10;99.90;;;1.32;100.00;97745.56;4996694;28;20558;-36
2023/10/16 04:07:58;;;;;;;5.72;3.20;;;2.10;99.90;;;1.30;100.00;97749.91;4994917;28;20059;-36
2023/10/16 04:10:28;;;;;;;8.23;3.65;;;2.10;99.90;;;1.25;100.00;97749.88;4992412;28;20034;-36
2023/10/16 04:12:58;;;;;;;5.10;3.28;;;2.10;99.90;;;1.22;100.00;97741.19;4993071;28;20044;-36
2023/10/16 04:31:44;;;;;;;5.47;2.70;;;2.00;99.90;;;1.12;100.00;97733.34;4990530;28;20049;-36
2023/10/16 04:53:09;;;;;;;4.85;3.25;;;1.80;99.90;;;1.01;100.00;97714.25;4994996;28;20037;-38
2023/10/16 05:06:38;;;;;;;5.13;3.70;;;1.80;99.90;;;1.03;100.00;97696.06;4992419;28;20037;-36
2023/10/16 05:13:17;;;;;;;7.10;3.38;;;1.80;99.90;;;1.06;100.00;97696.06;4995757;28;20497;-37
2023/10/16 06:15:22;;;;;;;4.88;3.00;;;2.10;99.90;;;1.43;100.00;97711.84;4992260;28;20049;-37
2023/10/16 06:17:51;;;;;;;5.90;3.15;;;2.20;99.90;;;1.50;100.00;97706.66;4993385;28;20030;-37
2023/10/16 06:20:20;;;;;;;6.32;4.03;;;2.30;99.90;;;1.46;100.00;97689.34;4994547;28;20521;-37
2023/10/16 06:22:51;;;;;;;8.13;3.60;;;2.40;99.90;;;1.62;100.00;97715.41;4996479;28;20124;-37
2023/10/16 06:25:19;;;;;;;6.53;3.58;;;2.40;99.90;;;1.62;100.00;97711.06;4993817;28;20034;-37
2023/10/16 06:27:46;;;;;;;5.50;3.40;;;2.50;99.90;;;1.75;100.00;97718.91;4994436;28;20474;-38
2023/10/16 06:30:18;;;;;;;6.13;3.40;;;2.60;99.90;;;1.78;100.00;97719.78;4991139;28;20462;-38
2023/10/16 06:32:44;;;;;;;;;;;2.60;99.90;;;1.84;100.00;97718.94;4998935;28;20590;-39
2023/10/16 06:35:16;;;;;;;8.45;3.70;;;2.60;99.90;;;1.88;100.00;97715.47;4993484;28;20509;-39
2023/10/16 06:37:51;;;;;;;5.32;3.35;;;2.70;99.90;;;1.93;100.00;97721.53;4996364;28;20029;-38
2023/10/16 06:40:24;;;;;;;5.35;3.22;;;2.70;99.90;;;1.90;100.00;97722.41;4993049;28;20038;-39
2023/10/16 06:42:54;;;;;;;6.50;3.10;;;2.70;99.90;;;1.83;100.00;97704.16;4997577;28;20057;-39
2023/10/16 06:45:22;;;;;;;5.80;2.97;;;2.70;99.90;;;1.93;100.00;97723.28;4992812;28;20517;-38
2023/10/16 06:47:48;;;;;;;6.05;3.17;;;2.70;99.90;;;1.89;100.00;97714.59;4998713;28;20374;-39
2023/10/16 06:52:55;;;;;;;8.27;3.50;;;2.80;99.90;;;2.05;100.00;97715.50;4993150;28;20025;-37
2023/10/16 06:55:21;;;;;;;5.55;3.65;;;2.90;99.90;;;2.10;100.00;97727.66;4991214;28;20045;-38
2023/10/16 06:57:47;;;;;;;6.95;3.72;;;2.90;99.90;;;2.15;100.00;97718.97;4990966;28;20498;-38
2023/10/16 07:00:27;;;;;;;7.82;3.30;;;3.00;99.90;;;2.06;100.00;97699.91;4987667;28;20072;-36
2023/10/16 07:02:54;;;;;;;5.22;3.53;;;3.00;99.90;;;2.24;100.00;97717.28;4991651;28;22324;-40
2023/10/16 07:08:08;;;;;;;6.72;3.90;;;3.10;99.90;;;2.37;100.00;97727.69;4992364;28;20283;-38
2023/10/16 07:10:33;;;;;;;7.72;3.65;;;3.10;99.90;;;2.37;100.00;97719.88;4997713;28;20034;-40
2023/10/16 07:13:00;;;;;;;6.20;3.30;;;3.20;99.90;;;2.44;100.00;97722.50;4991922;28;20394;-38
2023/10/16 07:15:29;;;;;;;7.13;3.85;;;3.30;99.90;;;2.42;100.00;97706.00;4990472;28;20080;-38
2023/10/16 07:18:04;;;;;;;7.82;4.15;;;3.30;99.90;;;2.51;100.00;97717.28;4991050;28;20069;-39
2023/10/16 07:20:34;;;;;;;7.95;3.92;;;3.40;99.90;;;2.71;100.00;97725.09;4988043;28;20045;-39
2023/10/16 07:23:00;;;;;;;5.88;3.72;;;3.50;99.90;;;2.82;100.00;97728.56;4986385;28;20398;-40
2023/10/16 07:28:11;;;;;;;7.55;4.05;;;3.70;99.90;;;2.98;100.00;97719.84;4989357;28;20040;-38
2023/10/16 07:30:42;;;;;;;6.95;3.90;;;3.70;99.90;;;3.04;100.00;97718.97;4992874;28;20030;-37
2023/10/16 07:33:14;;;;;;;6.80;3.60;;;3.80;99.90;;;3.08;100.00;97714.63;4983439;28;20029;-39
2023/10/16 07:35:44;;;;;;;6.38;3.97;;;3.90;99.90;;;3.07;100.00;97708.56;4991618;28;20463;-39
2023/10/16 07:38:21;;;;;;;7.85;3.60;;;3.90;99.90;;;3.17;100.00;97718.06;4981599;28;20045;-37
2023/10/16 07:41:00;;;;;;;8.88;4.38;;;4.00;99.90;;;3.17;100.00;97704.19;4994229;28;20531;-37
2023/10/16 07:43:28;;;;;;;7.32;4.38;;;4.00;99.90;;;3.24;100.00;97713.72;4996836;28;20123;-38
2023/10/16 07:48:51;;;;;;;7.28;3.80;;;4.10;99.90;;;3.32;100.00;97708.47;4999558;28;20038;-41
2023/10/16 07:51:20;;;;;;;7.65;4.22;;;4.20;99.90;;;3.40;100.00;97704.09;4995376;28;20498;-38
2023/10/16 07:53:50;;;;;;;6.40;3.90;;;4.30;99.90;;;3.47;100.00;97702.34;5000109;28;20155;-37
2023/10/16 07:59:07;;;;;;;8.05;4.85;;;4.50;99.90;;;3.80;100.00;97722.19;4999305;28;20030;-39
2023/10/16 08:01:45;;;;;;;7.55;4.30;;;4.60;99.90;;;3.90;100.00;97723.03;4994239;28;20057;-37
2023/10/16 08:04:19;;;;;;;9.25;4.25;;;4.70;99.90;;;4.03;100.00;97723.81;4995209;28;20056;-38
2023/10/16 08:06:46;;;;;;;9.32;4.18;;;4.80;99.90;;;4.19;100.00;97715.88;4996683;28;20099;-37
2023/10/16 08:11:58;;;;;;;9.32;4.68;;;5.10;99.90;;;4.56;100.00;97722.59;5001212;28;20045;-38
2023/10/16 08:14:25;;;;;;;7.40;3.92;;;5.40;99.90;;;4.75;100.00;97715.47;4994459;28;20586;-40
2023/10/16 08:16:58;;;;;;;7.35;4.28;;;5.50;99.90;;;4.91;100.00;97729.25;4993396;28;20046;-38
2023/10/16 08:19:25;;;;;;;8.52;4.40;;;5.70;99.90;;;5.10;100.00;97720.38;4997091;28;20033;-39
2023/10/16 08:21:54;;;;;;;9.65;4.10;;;5.90;99.90;;;5.23;100.00;97721.09;4993920;28;20061;-39
2023/10/16 08:24:21;;;;;;;5.78;3.92;;;6.00;99.90;;;5.48;100.00;97721.69;4992965;28;20330;-38
2023/10/16 08:26:48;;;;;;;7.78;4.60;;;6.20;99.90;;;5.65;100.00;97724.13;4992472;28;20037;-38
2023/10/16 08:31:48;;;;;;;6.55;4.32;;;6.60;99.90;;;6.02;100.00;97712.34;4993827;28;20065;-38
2023/10/16 08:34:21;;;;;;;7.53;4.50;;;6.80;99.90;;;6.28;100.00;97725.94;4994975;28;20036;-39
2023/10/16 08:36:50;;;;;;;6.72;4.40;;;7.00;99.90;;;6.44;100.00;97731.81;4995367;28;20014;-38
2023/10/16 08:39:19;;;;;;;7.63;3.85;;;7.20;99.90;;;6.61;100.00;97730.69;4988059;28;20026;-38
2023/10/16 08:41:53;;;;;;;6.70;3.63;;;7.30;99.90;;;6.78;100.00;97731.25;4994143;28;20109;-38
2023/10/16 08:44:23;;;;;;;9.98;4.50;;;7.50;99.90;;;6.75;100.00;97736.56;4991377;28;20025;-36
2023/10/16 08:49:24;;;;;;;5.72;2.95;;;7.50;99.90;;;6.75;100.00;97725.19;4988790;28;20344;-37
2023/10/16 08:51:54;;;;;;;9.10;2.90;;;7.50;99.90;;;6.89;100.00;97752.06;4993274;28;20088;-37
2023/10/16 08:57:07;;;;;;;5.93;3.70;;;7.60;99.90;;;7.11;100.00;97746.47;4990398;28;20033;-38
2023/10/16 08:59:35;;;;;;;10.23;3.30;;;7.70;99.90;;;7.16;100.00;97745.50;4987355;28;20030;-37
2023/10/16 09:02:05;;;;;;;5.72;2.72;;;7.80;99.90;;;7.27;100.00;97753.16;4995119;28;20060;-38
2023/10/16 09:04:31;;;;;;;8.98;3.38;;;7.90;99.90;;;7.36;100.00;97744.28;4990076;28;20034;-38
2023/10/16 09:06:57;;;;;;;5.18;2.53;;;8.00;99.90;;;7.39;100.00;97734.59;4989493;28;20053;-37
2023/10/16 09:09:25;;;;;;;4.47;2.80;;;8.10;99.90;;;7.41;100.00;97729.28;4987805;28;20091;-38
2023/10/16 09:12:01;;;;;;;7.75;3.90;;;8.10;99.90;;;7.52;100.00;97729.06;4996154;28;20034;-37
2023/10/16 09:14:27;;;;;;;6.82;3.20;;;8.10;99.90;;;7.53;100.00;97738.69;4995263;28;20042;-37
2023/10/16 09:16:55;;;;;;;3.75;2.80;;;8.20;99.90;;;7.50;100.00;97729.13;4996853;28;20505;-39
2023/10/16 09:19:32;;;;;;;5.32;2.95;;;8.10;99.90;;;7.54;100.00;97741.28;4990325;28;20048;-38
2023/10/16 09:21:58;;;;;;;5.53;3.25;;;8.20;99.90;;;7.54;100.00;97729.94;4996238;28;20036;-37
2023/10/16 09:24:24;;;;;;;6.25;2.75;;;8.20;99.90;;;7.59;100.00;97723.69;4991164;28;20038;-38
2023/10/16 09:26:54;;;;;;;4.15;2.70;;;8.20;99.90;;;7.54;100.00;97716.81;4992488;28;20564;-38
2023/10/16 09:29:27;;;;;;;5.53;2.65;;;8.20;99.90;;;7.66;100.00;97727.03;4993693;28;20040;-38
2023/10/16 09:31:53;;;;;;;4.22;2.63;;;8.30;99.90;;;7.60;100.00;97714.06;4991597;28;20040;-38
2023/10/16 09:34:25;;;;;;;5.07;2.20;;;8.30;99.90;;;7.70;100.00;97731.34;4982144;28;20029;-38
2023/10/16 09:39:40;;;;;;;3.60;2.00;;;8.30;99.90;;;7.75;100.00;97721.63;4996923;28;20052;-40
2023/10/16 09:42:12;;;;;;;4.43;2.58;;;8.30;99.90;;;7.78;100.00;97718.06;4989528;28;20057;-40
2023/10/16 09:44:40;;;;;;;4.70;2.58;;;8.40;99.90;;;7.82;100.00;97714.47;4998122;28;20026;-38
2023/10/16 09:47:25;;;;;;;5.53;3.08;;;8.40;99.90;;;7.92;100.00;97709.91;4993524;28;20061;-38
2023/10/16 09:49:59;;;;;;;4.20;2.45;;;8.50;99.90;;;7.96;100.00;97706.31;4993656;28;20589;-39
2023/10/16 09:52:30;;;;;;;4.80;2.53;;;8.60;99.90;;;8.02;100.00;97703.53;4985067;28;20131;-39
2023/10/16 09:54:59;;;;;;;9.35;3.08;;;8.60;99.90;;;8.07;100.00;97699.06;4998364;28;20044;-39
2023/10/16 09:57:30;;;;;;;3.83;2.47;;;8.70;99.90;;;8.11;100.00;97695.47;4993773;28;20029;-39
2023/10/16 10:00:16;;;;;;;3.90;2.53;;;8.70;99.90;;;8.21;100.00;97696.13;4993970;28;20036;-39
2023/10/16 10:02:43;;;;;;;7.47;3.13;;;8.80;99.90;;;8.20;100.00;97692.63;4995423;28;20053;-39
2023/10/16 10:05:09;;;;;;;5.68;2.80;;;8.90;99.90;;;8.17;100.00;97695.31;4989830;28;20053;-38
2023/10/16 10:07:48;;;;;;;9.75;2.67;;;8.80;99.90;;;8.17;100.00;97700.59;4995225;28;20088;-38
2023/10/16 10:13:08;;;;;;;6.53;3.42;;;8.80;99.90;;;8.03;100.00;97689.50;4996315;28;20041;-38
2023/10/16 10:15:38;;;;;;;4.75;3.08;;;8.80;99.90;;;8.03;100.00;97692.16;5002750;28;20037;-38
2023/10/16 10:18:31;;;;;;;4.75;2.80;;;8.70;99.90;;;8.00;100.00;97700.09;5002693;28;20375;-38
2023/10/16 10:20:58;;;;;;;3.72;2.50;;;8.70;99.90;;;7.99;100.00;97687.88;4984562;28;20059;-38
2023/10/16 10:23:28;;;;;;;4.68;2.10;;;8.60;99.90;;;8.09;100.00;97692.00;4975907;28;20402;-38
2023/10/16 10:25:54;;;;;;;3.13;1.80;;;8.60;99.90;;;8.14;100.00;97689.28;4980573;28;20096;-38
2023/10/16 10:28:28;;;;;;;4.45;2.63;;;8.80;99.90;;;8.12;100.00;97698.97;4980855;28;20137;-38
2023/10/16 10:30:56;;;;;;;5.65;2.10;;;8.80;99.90;;;8.15;100.00;97701.53;4977481;28;20563;-38
2023/10/16 10:33:58;;;;;;;5.18;2.50;;;8.80;99.90;;;8.12;100.00;97691.06;4979551;28;20048;-38
2023/10/16 10:36:39;;;;;;;4.95;2.80;;;8.80;99.90;;;7.87;100.00;97657.47;4971902;28;20194;-38
2023/10/16 10:41:55;;;;;;;6.28;2.42;;;8.80;99.90;;;8.25;100.00;97679.38;4983900;28;20107;-38
2023/10/16 10:44:37;;;;;;;3.20;2.10;;;8.80;99.90;;;8.29;100.00;97691.56;4981522;28;20030;-41
2023/10/16 10:47:17;;;;;;;3.88;2.38;;;8.90;99.90;;;8.31;100.00;97683.63;4982503;28;20128;-39
2023/10/16 10:49:43;;;;;;;3.95;2.35;;;9.00;99.90;;;8.28;100.00;97681.09;4979046;28;20427;-38
2023/10/16 10:52:12;;;;;;;3.35;2.08;;;8.90;99.90;;;8.29;100.00;97677.53;4981502;28;20065;-39
2023/10/16 10:54:42;;;;;;;3.30;1.98;;;8.90;99.90;;;8.29;100.00;97677.53;4980586;28;20037;-39
2023/10/16 10:57:20;;;;;;;5.18;2.45;;;8.90;99.90;;;8.35;100.00;97670.38;4982642;28;20029;-38
2023/10/16 10:59:54;;;;;;;4.85;2.45;;;9.00;99.90;;;8.44;100.00;97660.59;4986285;28;20168;-39
2023/10/16 11:02:35;;;;;;;5.35;2.22;;;9.00;99.90;;;8.51;100.00;97670.06;4979214;28;20034;-38
2023/10/16 11:05:08;;;;;;;4.65;2.20;;;9.20;99.90;;;8.53;100.00;97658.59;4983773;28;20131;-39
2023/10/16 11:07:59;;;;;;;4.38;2.28;;;9.20;99.90;;;8.53;100.00;97661.22;4993627;28;20044;-38
2023/10/16 11:10:24;;;;;;;4.03;2.70;;;9.20;99.90;;;8.51;100.00;97652.53;4990330;28;20038;-42
2023/10/16 11:12:50;;;;;;;3.33;2.50;;;9.20;99.90;;;8.49;100.00;97653.44;4991542;28;20067;-39
2023/10/16 11:15:16;;;;;;;4.90;2.58;;;9.20;99.90;;;8.53;100.00;97650.72;4985370;28;20045;-39
2023/10/16 11:17:44;;;;;;;3.28;2.30;;;9.20;99.90;;;8.45;100.00;97625.50;4978938;28;20121;-38
2023/10/16 11:22:46;;;;;;;5.10;2.17;;;9.20;99.90;;;8.56;100.00;97628.72;4987399;28;20041;-37
2023/10/16 11:25:15;;;;;;;3.67;2.47;;;9.20;99.90;;;8.58;100.00;97625.19;4988552;28;20117;-39
2023/10/16 11:27:42;;;;;;;4.40;2.40;;;9.20;99.90;;;8.56;100.00;97611.22;4994429;28;20026;-38
2023/10/16 11:30:18;;;;;;;3.63;2.17;;;9.20;99.90;;;8.59;100.00;97611.09;4977566;28;21172;-38
2023/10/16 11:32:47;;;;;;;5.63;2.10;;;9.30;99.90;;;8.71;100.00;97615.19;4989334;28;20069;-37
2023/10/16 11:35:17;;;;;;;5.35;1.92;;;9.30;99.90;;;8.73;98.73;97600.25;4996795;28;20049;-40
2023/10/16 11:37:50;;;;;;;2.63;1.98;;;9.40;99.90;;;8.79;95.96;97599.22;4994866;28;20313;-38
2023/10/16 11:40:19;;;;;;;5.53;1.70;;;9.40;99.90;;;8.84;97.43;97599.97;4982569;28;20048;-38
2023/10/16 11:42:48;;;;;;;2.97;1.75;;;9.50;99.90;;;8.83;94.66;97586.84;4995481;28;20038;-37
2023/10/16 11:45:23;;;;;;;4.53;2.33;;;9.50;99.90;;;8.94;93.39;97593.56;4996337;28;20034;-38
2023/10/16 11:50:40;;;;;;;2.80;1.23;;;9.60;99.90;;;9.10;85.11;97582.63;4992210;28;20084;-39
2023/10/16 11:53:07;;;;;;;1.77;0.95;;;9.70;99.90;;;9.13;81.11;97586.03;4994317;28;20096;-37
2023/10/16 11:55:37;;;;;;;1.95;0.80;;;9.80;99.90;;;9.21;82.30;97583.16;4994954;28;20584;-38
2023/10/16 11:58:11;;;;;;;2.30;1.40;;;9.80;99.90;;;9.24;78.99;97582.22;4990984;28;20037;-38
2023/10/16 12:00:43;;;;;;;1.70;1.08;;;9.90;99.90;;;9.16;72.70;97571.91;4994090;28;20037;-38
2023/10/16 12:03:14;;;;;;;2.55;1.25;;;9.80;99.90;;;9.24;73.29;97566.41;4985737;28;20588;-39
2023/10/16 12:05:43;;;;;;;1.73;0.90;;;9.90;99.90;;;9.26;79.97;97576.00;4990443;28;20189;-38
2023/10/16 12:08:10;;;;;;;3.17;1.40;;;9.90;99.90;;;9.27;80.31;97572.44;4987851;28;20149;-37
2023/10/16 12:10:36;;;;;;;2.10;1.50;;;9.90;99.90;;;9.29;81.02;97577.69;4987932;28;20053;-38
2023/10/16 12:13:03;;;;;;;3.53;1.60;;;9.90;99.90;;;9.36;75.87;97561.66;4994301;28;20037;-38
2023/10/16 12:15:31;;;;;;;2.58;1.30;;;9.90;99.90;;;9.36;76.03;97560.81;4982926;28;20034;-37
2023/10/16 12:18:00;;;;;;;3.38;1.60;;;9.90;99.90;;;9.35;78.58;97556.47;4981579;28;20478;-40
2023/10/16 12:20:27;;;;;;;2.28;1.30;;;9.90;99.90;;;9.40;81.54;97545.78;4984917;28;20065;-38
2023/10/16 12:22:54;;;;;;;4.25;1.70;;;10.00;99.90;;;9.36;76.71;97540.59;4988164;28;20030;-38
2023/10/16 12:25:21;;;;;;;4.40;1.30;;;10.00;99.90;;;9.41;79.88;97542.25;4990010;28;20044;-39
2023/10/16 12:27:48;;;;;;;2.58;1.60;;;10.00;99.90;;;9.44;80.32;97539.50;4991163;28;20482;-38
2023/10/16 12:30:14;;;;;;;3.53;1.13;;;10.00;99.90;;;9.46;81.61;97535.09;4975746;28;20037;-38
2023/10/16 12:32:40;;;;;;;2.47;1.10;;;10.00;99.90;;;9.37;81.33;97515.16;4979947;28;20038;-39
2023/10/16 12:35:11;;;;;;;2.65;1.08;;;10.10;99.90;;;9.54;82.19;97528.66;4984581;28;20045;-38
2023/10/16 12:37:38;;;;;;;2.55;1.20;;;10.10;99.90;;;9.57;81.15;97524.22;4977287;28;20042;-37
2023/10/16 12:42:49;;;;;;;1.52;1.10;;;10.20;99.90;;;9.57;79.99;97513.69;4988948;28;20041;-40
2023/10/16 12:45:15;;;;;;;2.03;1.55;;;10.20;99.90;;;9.64;80.54;97518.72;4986089;28;20300;-39
2023/10/16 12:47:41;;;;;;;1.83;1.23;;;10.20;99.90;;;9.60;78.25;97517.09;4988586;28;21380;-38
2023/10/16 12:50:07;;;;;;;2.80;1.60;;;10.20;99.90;;;9.60;77.40;97514.47;4987728;28;20057;-40
2023/10/16 12:52:33;;;;;;;3.42;1.30;;;10.20;99.90;;;9.59;73.33;97507.44;4979927;28;20165;-40
2023/10/16 12:55:01;;;;;;;1.58;1.13;;;10.20;99.90;;;9.64;74.95;97509.94;4981465;28;20029;-39
2023/10/16 12:57:28;;;;;;;2.22;1.20;;;10.20;99.90;;;9.62;77.67;97499.47;4982842;28;20066;-39
2023/10/16 12:59:56;;;;;;;2.03;1.25;;;10.20;99.90;;;9.65;78.67;97496.72;4985818;28;20096;-38
2023/10/16 13:02:25;;;;;;;4.85;1.30;;;10.30;99.90;;;9.62;75.50;97496.84;4981179;28;20382;-38
2023/10/16 13:04:52;;;;;;;2.05;1.42;;;10.20;99.90;;;9.54;73.99;97475.13;4985937;28;20087;-40
2023/10/16 13:07:20;;;;;;;1.90;1.30;;;10.20;99.90;;;9.57;75.43;97490.84;4991650;28;20036;-39
2023/10/16 13:09:47;;;;;;;3.05;1.20;;;10.20;99.90;;;9.51;75.73;97472.59;4986785;28;20073;-40
2023/10/16 13:12:13;;;;;;;2.72;1.40;;;10.20;99.90;;;9.59;74.84;97480.28;4996512;28;20092;-40
2023/10/16 13:14:39;;;;;;;3.63;1.40;;;10.20;99.90;;;9.58;76.50;97492.56;4989994;28;20048;-39